createdAt,value
2016-04-25T00:00:53.106Z,86.94
2016-04-25T00:01:53.078Z,86.37
2016-04-25T00:02:53.064Z,86.47
2016-04-25T00:03:53.035Z,86.66
2016-04-25T00:04:53.023Z,86.66
2016-04-25T00:05:52.995Z,86.47
2016-04-25T00:06:52.982Z,86.85
2016-04-25T00:07:52.952Z,87.6
2016-04-25T00:08:52.955Z,87.51
2016-04-25T00:09:52.911Z,87.51
2016-04-25T00:10:52.899Z,86.94
2016-04-25T00:11:52.871Z,87.51
2016-04-25T00:12:52.873Z,87.79
2016-04-25T00:13:52.828Z,87.7
2016-04-25T00:14:52.815Z,88.17
2016-04-25T00:15:52.803Z,88.45
2016-04-25T00:16:52.774Z,87.98
2016-04-25T00:17:52.762Z,88.45
2016-04-25T00:18:52.732Z,88.45
2016-04-25T00:19:52.719Z,88.26
2016-04-25T00:20:52.691Z,88.74
2016-04-25T00:21:52.695Z,88.36
2016-04-25T00:22:52.654Z,88.17
2016-04-25T00:23:52.626Z,88.36
2016-04-25T00:24:52.614Z,88.17
2016-04-25T00:25:52.601Z,88.83
2016-04-25T00:26:52.572Z,88.55
2016-04-25T00:27:53.184Z,88.74
2016-04-25T00:28:52.531Z,88.36
2016-04-25T00:29:52.517Z,88.36
2016-04-25T00:30:52.490Z,88.36
2016-04-25T00:31:52.476Z,88.83
2016-04-25T00:32:52.448Z,87.88
2016-04-25T00:33:52.435Z,88.36
2016-04-25T00:34:52.406Z,88.07
2016-04-25T00:35:52.394Z,88.83
2016-04-25T00:36:52.380Z,88.74
2016-04-25T00:37:52.368Z,88.83
2016-04-25T00:38:52.323Z,88.93
2016-04-25T00:39:52.311Z,88.74
2016-04-25T00:40:52.297Z,89.02
2016-04-25T00:41:52.113Z,88.83
2016-04-25T00:42:52.724Z,89.02
2016-04-25T00:43:52.228Z,88.64
2016-04-25T00:44:52.230Z,87.88
2016-04-25T00:45:52.186Z,88.74
2016-04-25T00:46:52.173Z,88.83
2016-04-25T00:47:52.145Z,88.83
2016-04-25T00:48:52.147Z,88.83
2016-04-25T00:49:52.103Z,88.55
2016-04-25T00:50:52.090Z,88.45
2016-04-25T00:51:52.062Z,88.83
2016-04-25T00:52:52.048Z,88.74
2016-04-25T00:53:52.021Z,88.07
2016-04-25T00:54:52.007Z,88.36
2016-04-25T00:55:51.979Z,88.64
2016-04-25T00:56:51.965Z,88.74
2016-04-25T00:57:51.938Z,88.83
2016-04-25T00:58:51.924Z,88.93
2016-04-25T00:59:51.912Z,89.02
2016-04-25T01:00:51.898Z,88.93
2016-04-25T01:01:51.869Z,88.93
2016-04-25T01:02:51.841Z,88.93
2016-04-25T01:03:51.829Z,89.12
2016-04-25T01:04:51.800Z,88.93
2016-04-25T01:05:51.787Z,89.4
2016-04-25T01:06:51.789Z,89.59
2016-04-25T01:07:51.730Z,88.93
2016-04-25T01:08:51.717Z,89.87
2016-04-25T01:09:51.704Z,89.59
2016-04-25T01:10:51.691Z,89.5
2016-04-25T01:11:51.661Z,89.59
2016-04-25T01:12:51.649Z,89.69
2016-04-25T01:13:51.621Z,89.31
2016-04-25T01:14:51.592Z,89.69
2016-04-25T01:15:51.579Z,90.06
2016-04-25T01:16:51.550Z,89.87
2016-04-25T01:17:51.538Z,89.69
2016-04-25T01:18:51.525Z,89.59
2016-04-25T01:19:51.512Z,89.59
2016-04-25T01:20:51.483Z,89.78
2016-04-25T01:21:51.454Z,89.87
2016-04-25T01:22:51.427Z,89.78
2016-04-25T01:23:51.413Z,90.06
2016-04-25T01:24:51.384Z,89.78
2016-04-25T01:25:51.371Z,89.69
2016-04-25T01:26:51.359Z,89.59
2016-04-25T01:27:51.924Z,90.06
2016-04-25T01:28:51.318Z,89.59
2016-04-25T01:29:51.304Z,89.78
2016-04-25T01:30:51.276Z,90.06
2016-04-25T01:31:51.248Z,89.69
2016-04-25T01:32:51.234Z,89.4
2016-04-25T01:33:51.206Z,90.34
2016-04-25T01:34:51.193Z,90.25
2016-04-25T01:35:51.164Z,90.16
2016-04-25T01:36:51.151Z,90.16
2016-04-25T01:37:51.123Z,90.16
2016-04-25T01:38:51.109Z,90.44
2016-04-25T01:39:51.081Z,90.34
2016-04-25T01:40:51.069Z,90.91
2016-04-25T01:41:51.040Z,90.34
2016-04-25T01:42:51.027Z,90.16
2016-04-25T01:43:50.997Z,90.16
2016-04-25T01:44:50.985Z,90.34
2016-04-25T01:45:50.957Z,90.16
2016-04-25T01:46:50.944Z,90.16
2016-04-25T01:47:50.916Z,90.44
2016-04-25T01:48:50.902Z,90.44
2016-04-25T01:49:50.889Z,90.44
2016-04-25T01:50:50.861Z,91.01
2016-04-25T01:51:50.832Z,90.25
2016-04-25T01:52:50.819Z,90.63
2016-04-25T01:53:50.791Z,90.25
2016-04-25T01:54:50.778Z,90.44
2016-04-25T01:55:50.749Z,90.16
2016-04-25T01:56:50.752Z,90.16
2016-04-25T01:57:50.598Z,90.44
2016-04-25T01:58:50.695Z,90.16
2016-04-25T01:59:50.666Z,90.91
2016-04-25T02:00:50.653Z,90.63
2016-04-25T02:01:50.641Z,90.16
2016-04-25T02:02:50.612Z,90.44
2016-04-25T02:03:50.584Z,90.91
2016-04-25T02:04:50.570Z,91.2
2016-04-25T02:05:50.557Z,91.29
2016-04-25T02:06:50.545Z,91.01
2016-04-25T02:07:50.517Z,90.82
2016-04-25T02:08:50.550Z,91.29
2016-04-25T02:09:50.459Z,90.82
2016-04-25T02:10:50.445Z,91.39
2016-04-25T02:11:50.434Z,91.29
2016-04-25T02:12:50.905Z,91.77
2016-04-25T02:13:50.391Z,91.2
2016-04-25T02:14:50.363Z,91.39
2016-04-25T02:15:50.334Z,91.58
2016-04-25T02:16:50.322Z,91.1
2016-04-25T02:17:50.308Z,91.48
2016-04-25T02:18:50.280Z,91.2
2016-04-25T02:19:50.266Z,91.58
2016-04-25T02:20:50.238Z,91.67
2016-04-25T02:21:50.226Z,91.67
2016-04-25T02:22:50.213Z,91.77
2016-04-25T02:23:50.184Z,91.67
2016-04-25T02:24:50.155Z,91.86
2016-04-25T02:25:50.142Z,92.05
2016-04-25T02:26:50.114Z,91.77
2016-04-25T02:27:50.117Z,91.77
2016-04-25T02:28:50.072Z,91.29
2016-04-25T02:29:50.060Z,91.58
2016-04-25T02:30:50.031Z,91.29
2016-04-25T02:31:50.018Z,91.58
2016-04-25T02:32:49.990Z,91.29
2016-04-25T02:33:49.977Z,91.86
2016-04-25T02:34:49.965Z,91.77
2016-04-25T02:35:49.935Z,91.39
2016-04-25T02:36:49.922Z,91.39
2016-04-25T02:37:49.893Z,91.39
2016-04-25T02:38:49.864Z,91.48
2016-04-25T02:39:49.852Z,91.96
2016-04-25T02:40:49.840Z,91.58
2016-04-25T02:41:49.811Z,91.58
2016-04-25T02:42:50.111Z,91.29
2016-04-25T02:43:49.769Z,91.39
2016-04-25T02:44:49.756Z,91.48
2016-04-25T02:45:49.728Z,91.43
2016-04-25T02:46:49.700Z,91.2
2016-04-25T02:47:49.686Z,91.1
2016-04-25T02:48:49.673Z,91.53
2016-04-25T02:49:49.645Z,91.29
2016-04-25T02:50:49.647Z,91.2
2016-04-25T02:51:49.603Z,91.43
2016-04-25T02:52:49.591Z,91.1
2016-04-25T02:53:49.577Z,91.24
2016-04-25T02:54:49.549Z,91.39
2016-04-25T02:55:49.535Z,91.1
2016-04-25T02:56:49.508Z,91.48
2016-04-25T02:57:49.432Z,91.2
2016-04-25T02:58:49.466Z,91.1
2016-04-25T02:59:49.453Z,91.29
2016-04-25T03:00:49.424Z,91.1
2016-04-25T03:01:49.396Z,91.29
2016-04-25T03:02:49.382Z,91.2
2016-04-25T03:03:49.371Z,91.48
2016-04-25T03:04:49.341Z,91.58
2016-04-25T03:05:49.328Z,91.58
2016-04-25T03:06:49.410Z,91.48
2016-04-25T03:07:49.287Z,91.67
2016-04-25T03:08:49.289Z,91.48
2016-04-25T03:09:49.245Z,91.48
2016-04-25T03:10:49.217Z,92.05
2016-04-25T03:11:49.204Z,91.86
2016-04-25T03:12:49.019Z,91.96
2016-04-25T03:13:49.022Z,91.96
2016-04-25T03:14:49.150Z,91.86
2016-04-25T03:15:49.120Z,92.52
2016-04-25T03:16:49.295Z,91.96
2016-04-25T03:17:49.283Z,91.86
2016-04-25T03:18:49.066Z,91.67
2016-04-25T03:19:49.039Z,92.14
2016-04-25T03:20:49.009Z,92.33
2016-04-25T03:21:48.996Z,92.61
2016-04-25T03:22:48.968Z,92.61
2016-04-25T03:23:48.971Z,92.9
2016-04-25T03:24:48.941Z,92.05
2016-04-25T03:25:48.179Z,92.14
2016-04-25T03:26:48.900Z,92.24
2016-04-25T03:27:48.872Z,92.05
2016-04-25T03:28:48.843Z,92.33
2016-04-25T03:29:48.830Z,92.33
2016-04-25T03:30:48.801Z,92.05
2016-04-25T03:31:48.804Z,92.71
2016-04-25T03:32:48.777Z,92.71
2016-04-25T03:33:48.747Z,92.99
2016-04-25T03:34:48.751Z,92.24
2016-04-25T03:35:48.721Z,92.61
2016-04-25T03:36:48.693Z,92.33
2016-04-25T03:37:48.665Z,92.71
2016-04-25T03:38:48.651Z,92.8
2016-04-25T03:39:48.623Z,92.8
2016-04-25T03:40:48.594Z,92.8
2016-04-25T03:41:48.581Z,92.9
2016-04-25T03:42:48.568Z,92.24
2016-04-25T03:43:48.384Z,92.43
2016-04-25T03:44:48.511Z,92.8
2016-04-25T03:45:48.342Z,92.71
2016-04-25T03:46:48.470Z,93.56
2016-04-25T03:47:48.457Z,93.37
2016-04-25T03:48:48.444Z,93.47
2016-04-25T03:49:48.416Z,93.47
2016-04-25T03:50:48.403Z,93.18
2016-04-25T03:51:48.374Z,93.47
2016-04-25T03:52:48.345Z,93.28
2016-04-25T03:53:48.333Z,93.47
2016-04-25T03:54:48.304Z,93.37
2016-04-25T03:55:48.291Z,93.56
2016-04-25T03:56:48.278Z,93.37
2016-04-25T03:57:48.125Z,93.37
2016-04-25T03:58:48.221Z,93.28
2016-04-25T03:59:48.207Z,93.47
2016-04-25T04:00:48.179Z,93.56
2016-04-25T04:01:48.167Z,93.56
2016-04-25T04:02:48.138Z,93.37
2016-04-25T04:03:48.124Z,93.37
2016-04-25T04:04:48.096Z,93.51
2016-04-25T04:05:48.084Z,93.51
2016-04-25T04:06:48.055Z,93.51
2016-04-25T04:07:48.042Z,92.94
2016-04-25T04:08:48.029Z,92.94
2016-04-25T04:09:48.016Z,92.66
2016-04-25T04:10:48.004Z,92.66
2016-04-25T04:11:47.959Z,92.66
2016-04-25T04:12:47.805Z,92.85
2016-04-25T04:13:47.948Z,92.61
2016-04-25T04:14:47.921Z,92.85
2016-04-25T04:15:47.876Z,92.66
2016-04-25T04:16:47.864Z,92.76
2016-04-25T04:17:47.834Z,92.94
2016-04-25T04:18:47.822Z,92.94
2016-04-25T04:19:47.793Z,92.94
2016-04-25T04:20:47.780Z,92.66
2016-04-25T04:21:47.596Z,92.66
2016-04-25T04:22:47.739Z,93.13
2016-04-25T04:23:47.726Z,92.66
2016-04-25T04:24:47.697Z,93.04
2016-04-25T04:25:47.903Z,92.1
2016-04-25T04:26:47.655Z,92.1
2016-04-25T04:27:47.644Z,91.91
2016-04-25T04:28:48.692Z,91.81
2016-04-25T04:29:47.602Z,92
2016-04-25T04:30:47.572Z,92
2016-04-25T04:31:47.763Z,92.1
2016-04-25T04:32:47.531Z,92.1
2016-04-25T04:33:47.519Z,92.19
2016-04-25T04:34:47.490Z,92
2016-04-25T04:35:47.477Z,92.1
2016-04-25T04:36:47.448Z,92.19
2016-04-25T04:37:47.435Z,91.91
2016-04-25T04:38:47.423Z,91.81
2016-04-25T04:39:47.393Z,92.19
2016-04-25T04:40:47.365Z,92
2016-04-25T04:41:47.352Z,92.38
2016-04-25T04:42:47.199Z,92.43
2016-04-25T04:43:47.342Z,92.47
2016-04-25T04:44:47.298Z,92.19
2016-04-25T04:45:47.284Z,92.57
2016-04-25T04:46:47.257Z,91.81
2016-04-25T04:47:47.228Z,91.91
2016-04-25T04:48:47.215Z,92.43
2016-04-25T04:49:47.186Z,92.52
2016-04-25T04:50:47.173Z,92.19
2016-04-25T04:51:47.208Z,92.1
2016-04-25T04:52:47.132Z,92.29
2016-04-25T04:53:47.119Z,92.76
2016-04-25T04:54:47.106Z,92.1
2016-04-25T04:55:47.061Z,92.29
2016-04-25T04:56:47.049Z,92.1
2016-04-25T04:57:47.036Z,92.29
2016-04-25T04:58:47.272Z,92.1
2016-04-25T04:59:46.979Z,92.38
2016-04-25T05:00:46.966Z,92.47
2016-04-25T05:01:46.953Z,92.38
2016-04-25T05:02:46.924Z,92.38
2016-04-25T05:03:46.896Z,92.38
2016-04-25T05:04:46.883Z,92.19
2016-04-25T05:05:46.871Z,92.38
2016-04-25T05:06:46.841Z,92.38
2016-04-25T05:07:46.829Z,92.29
2016-04-25T05:08:46.799Z,92.19
2016-04-25T05:09:46.787Z,92.57
2016-04-25T05:10:46.774Z,91.91
2016-04-25T05:11:46.746Z,91.91
2016-04-25T05:12:46.768Z,92.94
2016-04-25T05:13:46.799Z,92.76
2016-04-25T05:14:46.815Z,92.29
2016-04-25T05:15:46.830Z,92.38
2016-04-25T05:16:46.846Z,92.29
2016-04-25T05:17:46.854Z,92.47
2016-04-25T05:18:46.842Z,92.19
2016-04-25T05:19:46.844Z,92.38
2016-04-25T05:20:46.848Z,92.29
2016-04-25T05:21:46.835Z,92.47
2016-04-25T05:22:46.845Z,92.57
2016-04-25T05:23:46.822Z,92.57
2016-04-25T05:24:46.800Z,92.47
2016-04-25T05:25:46.777Z,91.91
2016-04-25T05:26:46.769Z,92.29
2016-04-25T05:27:46.587Z,92.29
2016-04-25T05:28:47.045Z,91.91
2016-04-25T05:29:46.705Z,91.53
2016-04-25T05:30:46.695Z,91.24
2016-04-25T05:31:46.684Z,91.24
2016-04-25T05:32:46.656Z,91.34
2016-04-25T05:33:46.644Z,91.43
2016-04-25T05:34:46.616Z,91.76
2016-04-25T05:35:46.604Z,90.86
2016-04-25T05:36:46.591Z,91.29
2016-04-25T05:37:46.580Z,91
2016-04-25T05:38:46.535Z,90.44
2016-04-25T05:39:46.523Z,90.25
2016-04-25T05:40:46.511Z,90.72
2016-04-25T05:41:46.482Z,89.68
2016-04-25T05:42:46.469Z,89.77
2016-04-25T05:43:46.457Z,89.2
2016-04-25T05:44:46.428Z,89.3
2016-04-25T05:45:46.414Z,89.49
2016-04-25T05:46:46.386Z,88.35
2016-04-25T05:47:46.373Z,88.78
2016-04-25T05:48:46.345Z,88.59
2016-04-25T05:49:46.348Z,88.11
2016-04-25T05:50:46.319Z,88.3
2016-04-25T05:51:46.321Z,88.49
2016-04-25T05:52:46.278Z,88.49
2016-04-25T05:53:46.249Z,87.83
2016-04-25T05:54:46.235Z,87.54
2016-04-25T05:55:46.208Z,87.26
2016-04-25T05:56:46.241Z,87.73
2016-04-25T05:57:46.182Z,87.83
2016-04-25T05:58:46.169Z,87.07
2016-04-25T05:59:46.140Z,87.35
2016-04-25T06:00:46.127Z,87.35
2016-04-25T06:01:46.098Z,87.07
2016-04-25T06:02:46.086Z,87.45
2016-04-25T06:03:46.057Z,86.69
2016-04-25T06:04:46.043Z,87.35
2016-04-25T06:05:46.032Z,86.69
2016-04-25T06:06:46.003Z,87.26
2016-04-25T06:07:45.990Z,86.5
2016-04-25T06:08:45.977Z,86.79
2016-04-25T06:09:45.948Z,86.69
2016-04-25T06:10:45.951Z,87.07
2016-04-25T06:11:45.922Z,86.79
2016-04-25T06:12:45.909Z,87.26
2016-04-25T06:13:46.068Z,87.26
2016-04-25T06:14:45.868Z,86.88
2016-04-25T06:15:45.855Z,86.5
2016-04-25T06:16:46.030Z,86.03
2016-04-25T06:17:45.814Z,85.84
2016-04-25T06:18:45.785Z,86.5
2016-04-25T06:19:45.772Z,86.79
2016-04-25T06:20:45.775Z,86.03
2016-04-25T06:21:45.730Z,86.12
2016-04-25T06:22:45.718Z,86.31
2016-04-25T06:23:45.690Z,86.31
2016-04-25T06:24:45.661Z,86.41
2016-04-25T06:25:45.664Z,86.69
2016-04-25T06:26:45.636Z,86.79
2016-04-25T06:27:45.623Z,86.69
2016-04-25T06:28:45.453Z,85.84
2016-04-25T06:29:45.581Z,86.03
2016-04-25T06:30:45.553Z,86.12
2016-04-25T06:31:45.539Z,86.22
2016-04-25T06:32:45.527Z,86.03
2016-04-25T06:33:45.498Z,86.03
2016-04-25T06:34:45.485Z,85.74
2016-04-25T06:35:45.458Z,85.74
2016-04-25T06:36:45.444Z,86.03
2016-04-25T06:37:45.430Z,85.93
2016-04-25T06:38:45.403Z,85.93
2016-04-25T06:39:45.388Z,85.65
2016-04-25T06:40:45.377Z,84.23
2016-04-25T06:41:45.348Z,84.13
2016-04-25T06:42:45.335Z,83.7
2016-04-25T06:43:45.306Z,83.98
2016-04-25T06:44:45.528Z,84.13
2016-04-25T06:45:45.280Z,83.7
2016-04-25T06:46:45.252Z,84.46
2016-04-25T06:47:45.239Z,83.7
2016-04-25T06:48:45.227Z,83.8
2016-04-25T06:49:45.197Z,83.42
2016-04-25T06:50:45.185Z,83.23
2016-04-25T06:51:45.156Z,82.47
2016-04-25T06:52:45.143Z,83.13
2016-04-25T06:53:45.130Z,82.09
2016-04-25T06:54:45.102Z,81.99
2016-04-25T06:55:45.089Z,81.71
2016-04-25T06:56:45.076Z,82.18
2016-04-25T06:57:45.047Z,81.99
2016-04-25T06:58:45.050Z,82.09
2016-04-25T06:59:45.725Z,81.99
2016-04-25T07:00:45.212Z,82.66
2016-04-25T07:01:44.995Z,81.99
2016-04-25T07:02:45.013Z,81.62
2016-04-25T07:03:45.000Z,81.62
2016-04-25T07:04:44.988Z,80.48
2016-04-25T07:05:45.006Z,81.24
2016-04-25T07:06:44.947Z,81.56
2016-04-25T07:07:44.980Z,80.52
2016-04-25T07:08:44.967Z,80.24
2016-04-25T07:09:44.986Z,80.24
2016-04-25T07:10:44.847Z,80.71
2016-04-25T07:11:44.804Z,81.27
2016-04-25T07:12:44.775Z,81.47
2016-04-25T07:13:44.762Z,80.8
2016-04-25T07:14:44.749Z,81.47
2016-04-25T07:15:44.721Z,81.47
2016-04-25T07:16:44.723Z,79.57
2016-04-25T07:17:44.695Z,79.38
2016-04-25T07:18:44.698Z,78.15
2016-04-25T07:19:44.654Z,78.72
2016-04-25T07:20:44.640Z,78.38
2016-04-25T07:21:44.627Z,77.62
2016-04-25T07:22:44.614Z,77.9
2016-04-25T07:23:44.586Z,76.76
2016-04-25T07:24:44.573Z,76.76
2016-04-25T07:25:44.560Z,76.29
2016-04-25T07:26:44.531Z,76.39
2016-04-25T07:27:44.518Z,77.05
2016-04-25T07:28:44.490Z,77.14
2016-04-25T07:29:44.477Z,77.43
2016-04-25T07:30:44.464Z,76.86
2016-04-25T07:31:44.451Z,75.81
2016-04-25T07:32:44.423Z,75.81
2016-04-25T07:33:44.409Z,76.01
2016-04-25T07:34:44.381Z,75.34
2016-04-25T07:35:44.384Z,74.87
2016-04-25T07:36:44.355Z,76.01
2016-04-25T07:37:44.342Z,76.1
2016-04-25T07:38:44.313Z,75.81
2016-04-25T07:39:44.301Z,76.01
2016-04-25T07:40:44.288Z,75.09
2016-04-25T07:41:44.260Z,73.67
2016-04-25T07:42:44.262Z,74.05
2016-04-25T07:43:44.280Z,73.82
2016-04-25T07:44:44.220Z,73.63
2016-04-25T07:45:44.224Z,72.59
2016-04-25T07:46:44.179Z,72.21
2016-04-25T07:47:44.244Z,72.68
2016-04-25T07:48:44.153Z,72.68
2016-04-25T07:49:44.140Z,72.11
2016-04-25T07:50:44.112Z,72.78
2016-04-25T07:51:44.098Z,71.86
2016-04-25T07:52:44.086Z,71.67
2016-04-25T07:53:44.057Z,71.48
2016-04-25T07:54:44.045Z,71.86
2016-04-25T07:55:44.032Z,71.39
2016-04-25T07:56:44.018Z,71.39
2016-04-25T07:57:44.005Z,72.44
2016-04-25T07:58:43.837Z,71.11
2016-04-25T07:59:43.979Z,70.82
2016-04-25T08:00:43.967Z,70.38
2016-04-25T08:01:43.939Z,70.76
2016-04-25T08:02:43.925Z,70.1
2016-04-25T08:03:43.912Z,69.15
2016-04-25T08:04:43.884Z,69.43
2016-04-25T08:05:43.870Z,69.34
2016-04-25T08:06:43.858Z,70
2016-04-25T08:07:43.845Z,69.18
2016-04-25T08:08:43.832Z,68.61
2016-04-25T08:09:43.819Z,68.86
2016-04-25T08:10:43.791Z,68.19
2016-04-25T08:11:43.778Z,66.33
2016-04-25T08:12:43.758Z,66.39
2016-04-25T08:13:43.979Z,67.06
2016-04-25T08:14:44.045Z,66.3
2016-04-25T08:15:43.719Z,64.34
2016-04-25T08:16:43.908Z,62.85
2016-04-25T08:17:43.694Z,63.04
2016-04-25T08:18:43.664Z,64.05
2016-04-25T08:19:43.667Z,64.14
2016-04-25T08:20:43.654Z,63.29
2016-04-25T08:21:43.625Z,61.13
2016-04-25T08:22:43.614Z,58.15
2016-04-25T08:23:43.648Z,56.21
2016-04-25T08:24:43.587Z,57.6
2016-04-25T08:25:43.575Z,57.77
2016-04-25T08:26:43.562Z,58.72
2016-04-25T08:27:43.549Z,60.12
2016-04-25T08:28:44.880Z,60.94
2016-04-25T08:29:43.539Z,62.91
2016-04-25T08:30:43.526Z,63.95
2016-04-25T08:31:43.513Z,64.81
2016-04-25T08:32:43.484Z,65.63
2016-04-25T08:33:43.486Z,65.63
2016-04-25T08:34:43.475Z,65.67
2016-04-25T08:35:43.461Z,64.62
2016-04-25T08:36:43.449Z,64.05
2016-04-25T08:37:43.419Z,64.62
2016-04-25T08:38:43.422Z,64.62
2016-04-25T08:39:43.410Z,64.81
2016-04-25T08:40:43.385Z,64.81
2016-04-25T08:41:43.404Z,64.72
2016-04-25T08:42:43.360Z,62.72
2016-04-25T08:43:43.253Z,62.18
2016-04-25T08:44:43.335Z,61.42
2016-04-25T08:45:43.321Z,60.97
2016-04-25T08:46:43.324Z,60.02
2016-04-25T08:47:43.295Z,58.34
2016-04-25T08:48:43.282Z,57.01
2016-04-25T08:49:43.270Z,55.68
2016-04-25T08:50:43.256Z,53.99
2016-04-25T08:51:43.243Z,56.15
2016-04-25T08:52:43.246Z,58.47
2016-04-25T08:53:43.233Z,59.71
2016-04-25T08:54:43.205Z,59.71
2016-04-25T08:55:43.192Z,59.58
2016-04-25T08:56:43.194Z,61.48
2016-04-25T08:57:43.181Z,62.15
2016-04-25T08:58:43.028Z,62.34
2016-04-25T08:59:43.140Z,62.62
2016-04-25T09:00:43.127Z,62.78
2016-04-25T09:01:43.130Z,63.17
2016-04-25T09:02:43.101Z,63.45
2016-04-25T09:03:43.104Z,62.31
2016-04-25T09:04:43.091Z,61.48
2016-04-25T09:05:43.078Z,59.52
2016-04-25T09:06:43.049Z,58.47
2016-04-25T09:07:43.036Z,56.57
2016-04-25T09:08:43.024Z,55.55
2016-04-25T09:09:43.011Z,56.31
2016-04-25T09:10:42.998Z,56.44
2016-04-25T09:11:42.985Z,55.74
2016-04-25T09:12:42.971Z,55.2
2016-04-25T09:13:43.099Z,55.49
2016-04-25T09:14:42.962Z,54.72
2016-04-25T09:15:42.948Z,55.65
2016-04-25T09:16:42.939Z,55.93
2016-04-25T09:17:42.927Z,56.41
2016-04-25T09:18:42.914Z,54.72
2016-04-25T09:19:42.901Z,52.47
2016-04-25T09:20:42.904Z,53.58
2016-04-25T09:21:43.016Z,52.94
2016-04-25T09:22:42.863Z,52.75
2016-04-25T09:23:42.865Z,52.09
2016-04-25T09:24:42.852Z,50.18
2016-04-25T09:25:42.854Z,51.16
2016-04-25T09:26:42.826Z,51.32
2016-04-25T09:27:42.829Z,50.66
2016-04-25T09:28:42.832Z,50.4
2016-04-25T09:29:43.365Z,48.97
2016-04-25T09:30:42.806Z,48.9
2016-04-25T09:31:42.792Z,46.7
2016-04-25T09:32:42.780Z,47.47
2016-04-25T09:33:42.767Z,45.75
2016-04-25T09:34:42.769Z,46.99
2016-04-25T09:35:42.756Z,46.73
2016-04-25T09:36:42.743Z,46.61
2016-04-25T09:37:42.746Z,47.63
2016-04-25T09:38:42.733Z,45.35
2016-04-25T09:39:42.720Z,45.47
2016-04-25T09:40:42.708Z,45.75
2016-04-25T09:41:42.725Z,46.68
2016-04-25T09:42:42.697Z,48.08
2016-04-25T09:43:42.700Z,49.11
2016-04-25T09:44:44.218Z,49.49
2016-04-25T09:45:42.689Z,50.23
2016-04-25T09:46:42.661Z,50.7
2016-04-25T09:47:42.664Z,50.79
2016-04-25T09:48:42.650Z,50.51
2016-04-25T09:49:42.638Z,50.15
2016-04-25T09:50:42.625Z,50.25
2016-04-25T09:51:42.612Z,50.6
2016-04-25T09:52:42.599Z,50.54
2016-04-25T09:53:42.617Z,49.51
2016-04-25T09:54:42.588Z,49.51
2016-04-25T09:55:42.576Z,49.11
2016-04-25T09:56:42.563Z,50.25
2016-04-25T09:57:42.549Z,49.23
2016-04-25T09:58:42.537Z,48.94
2016-04-25T09:59:42.384Z,47.71
2016-04-25T10:00:42.527Z,45.84
2016-04-25T10:01:42.514Z,43.18
2016-04-25T10:02:42.501Z,44.32
2016-04-25T10:03:42.487Z,45.28
2016-04-25T10:04:42.475Z,45.08
2016-04-25T10:05:42.462Z,44.01
2016-04-25T10:06:42.465Z,45.63
2016-04-25T10:07:42.451Z,45.73
2016-04-25T10:08:42.439Z,46.66
2016-04-25T10:09:42.426Z,48.56
2016-04-25T10:10:42.414Z,49.99
2016-04-25T10:11:42.400Z,48.47
2016-04-25T10:12:42.402Z,47.44
2016-04-25T10:13:42.234Z,46.2
2016-04-25T10:14:42.565Z,46.68
2016-04-25T10:15:42.364Z,44.99
2016-04-25T10:16:42.570Z,43.37
2016-04-25T10:17:42.353Z,44.68
2016-04-25T10:18:42.341Z,44.01
2016-04-25T10:19:42.328Z,44.78
2016-04-25T10:20:42.316Z,45.92
2016-04-25T10:21:42.318Z,45.54
2016-04-25T10:22:42.304Z,44.39
2016-04-25T10:23:42.291Z,44.6
2016-04-25T10:24:42.279Z,43.75
2016-04-25T10:25:42.282Z,45.94
2016-04-25T10:26:42.269Z,45.15
2016-04-25T10:27:42.255Z,45.92
2016-04-25T10:28:43.196Z,47.13
2016-04-25T10:29:42.996Z,47.73
2016-04-25T10:30:42.233Z,47.04
2016-04-25T10:31:42.241Z,47.61
2016-04-25T10:32:42.087Z,47.89
2016-04-25T10:33:42.215Z,48.85
2016-04-25T10:34:42.053Z,46.28
2016-04-25T10:35:42.184Z,45.73
2016-04-25T10:36:42.170Z,44.7
2016-04-25T10:37:42.157Z,44.23
2016-04-25T10:38:42.145Z,45.06
2016-04-25T10:39:42.148Z,45.73
2016-04-25T10:40:42.135Z,46.28
2016-04-25T10:41:42.137Z,46.37
2016-04-25T10:42:42.124Z,46.66
2016-04-25T10:43:42.267Z,47.3
2016-04-25T10:44:41.989Z,49.01
2016-04-25T10:45:42.086Z,49.87
2016-04-25T10:46:42.072Z,50.63
2016-04-25T10:47:42.059Z,51.1
2016-04-25T10:48:42.047Z,51.1
2016-04-25T10:49:42.050Z,51.46
2016-04-25T10:50:42.036Z,52.41
2016-04-25T10:51:42.024Z,51.46
2016-04-25T10:52:42.010Z,50.42
2016-04-25T10:53:42.013Z,51.08
2016-04-25T10:54:41.999Z,50.7
2016-04-25T10:55:41.972Z,50.23
2016-04-25T10:56:41.974Z,50.13
2016-04-25T10:57:41.946Z,49.56
2016-04-25T10:58:41.948Z,48.63
2016-04-25T10:59:41.858Z,47.2
2016-04-25T11:00:41.923Z,47.58
2016-04-25T11:01:41.160Z,47.78
2016-04-25T11:02:41.896Z,46.18
2016-04-25T11:03:41.884Z,45.83
2016-04-25T11:04:41.871Z,44.78
2016-04-25T11:05:41.857Z,43.91
2016-04-25T11:06:41.860Z,43.18
2016-04-25T11:07:41.848Z,42.77
2016-04-25T11:08:41.835Z,42.51
2016-04-25T11:09:41.837Z,43.25
2016-04-25T11:10:41.840Z,43.54
2016-04-25T11:11:41.796Z,43.8
2016-04-25T11:12:41.783Z,44.59
2016-04-25T11:13:41.925Z,44.11
2016-04-25T11:14:42.148Z,44.49
2016-04-25T11:15:41.759Z,45.04
2016-04-25T11:16:41.762Z,45.06
2016-04-25T11:17:41.750Z,44.78
2016-04-25T11:18:41.753Z,42.68
2016-04-25T11:19:41.739Z,43.42
2016-04-25T11:20:41.711Z,44.85
2016-04-25T11:21:41.714Z,45.04
2016-04-25T11:22:41.700Z,45.54
2016-04-25T11:23:41.688Z,43.16
2016-04-25T11:24:41.674Z,43.54
2016-04-25T11:25:41.615Z,42.68
2016-04-25T11:26:41.649Z,42.77
2016-04-25T11:27:41.652Z,43.61
2016-04-25T11:28:41.811Z,42.85
2016-04-25T11:29:41.797Z,43.61
2016-04-25T11:30:41.629Z,44.82
2016-04-25T11:31:41.616Z,44.64
2016-04-25T11:32:41.602Z,44.26
2016-04-25T11:33:41.590Z,44.35
2016-04-25T11:34:41.576Z,44.45
2016-04-25T11:35:41.563Z,45.4
2016-04-25T11:36:41.551Z,44.26
2016-04-25T11:37:41.397Z,43.8
2016-04-25T11:38:41.540Z,43.32
2016-04-25T11:39:41.512Z,42.85
2016-04-25T11:40:41.514Z,43.21
2016-04-25T11:41:41.501Z,42.47
2016-04-25T11:42:41.489Z,43.11
2016-04-25T11:43:41.803Z,43.04
2016-04-25T11:44:41.322Z,42.56
2016-04-25T11:45:41.465Z,42.76
2016-04-25T11:46:41.297Z,43.42
2016-04-25T11:47:41.428Z,43.49
2016-04-25T11:48:41.421Z,44.73
2016-04-25T11:49:41.408Z,45.68
2016-04-25T11:50:41.395Z,45.3
2016-04-25T11:51:41.382Z,44.92
2016-04-25T11:52:41.374Z,45.01
2016-04-25T11:53:41.360Z,45.49
2016-04-25T11:54:41.348Z,44.92
2016-04-25T11:55:41.335Z,45.49
2016-04-25T11:56:41.323Z,45.87
2016-04-25T11:57:41.326Z,45.78
2016-04-25T11:58:41.296Z,45.21
2016-04-25T11:59:41.877Z,46.35
2016-04-25T12:00:41.270Z,46.89
2016-04-25T12:01:41.273Z,47.58
2016-04-25T12:02:41.260Z,46.8
2016-04-25T12:03:41.232Z,46.63
2016-04-25T12:04:41.219Z,46.92
2016-04-25T12:05:41.206Z,46.83
2016-04-25T12:06:41.192Z,46.15
2016-04-25T12:07:41.180Z,46.44
2016-04-25T12:08:41.167Z,46.63
2016-04-25T12:09:41.170Z,46.56
2016-04-25T12:10:41.141Z,45.89
2016-04-25T12:11:41.144Z,45.68
2016-04-25T12:12:41.116Z,46.73
2016-04-25T12:13:41.102Z,46.06
2016-04-25T12:14:41.089Z,47.68
2016-04-25T12:15:41.091Z,48.71
2016-04-25T12:16:41.297Z,49.85
2016-04-25T12:17:41.050Z,50.32
2016-04-25T12:18:41.038Z,50.23
2016-04-25T12:19:41.025Z,50.23
2016-04-25T12:20:41.012Z,50.23
2016-04-25T12:21:40.999Z,51.06
2016-04-25T12:22:40.986Z,52.39
2016-04-25T12:23:40.973Z,53.43
2016-04-25T12:24:40.944Z,54.1
2016-04-25T12:25:40.932Z,54.29
2016-04-25T12:26:40.918Z,53.63
2016-04-25T12:27:40.906Z,54.38
2016-04-25T12:28:40.893Z,54.1
2016-04-25T12:29:41.271Z,54
2016-04-25T12:30:40.867Z,54.38
2016-04-25T12:31:40.854Z,53.91
2016-04-25T12:32:40.857Z,54.38
2016-04-25T12:33:40.828Z,54.96
2016-04-25T12:34:40.815Z,55.43
2016-04-25T12:35:40.786Z,55.52
2016-04-25T12:36:40.773Z,55.71
2016-04-25T12:37:40.761Z,55.81
2016-04-25T12:38:40.763Z,55.71
2016-04-25T12:39:40.734Z,55.05
2016-04-25T12:40:40.722Z,55.62
2016-04-25T12:41:40.740Z,54.86
2016-04-25T12:42:40.680Z,55.81
2016-04-25T12:43:40.667Z,55.62
2016-04-25T12:44:41.920Z,55.43
2016-04-25T12:45:40.641Z,54.98
2016-04-25T12:46:40.629Z,55.08
2016-04-25T12:47:40.616Z,54.41
2016-04-25T12:48:40.602Z,53.94
2016-04-25T12:49:40.747Z,53.75
2016-04-25T12:50:40.577Z,53.27
2016-04-25T12:51:40.579Z,53.17
2016-04-25T12:52:40.551Z,52.7
2016-04-25T12:53:40.554Z,52.32
2016-04-25T12:54:40.524Z,53.17
2016-04-25T12:55:40.513Z,53.17